Time;durP1;ratioP1;P1;durP2;ratioP2;P2;SDS_P1;SDS_P2;PMS_P1;PMS_P2;Temp;Humidity;BMP_temperature;BMP_pressure;BME280_temperature;BME280_humidity;BME280_pressure;Samples;Min_cycle;Max_cycle;Signal;HPM_P1;HPM_P2
2021/10/06 00:00:38;;;;;;;5.97;2.95;;;12.30;98.00;;;;;;5037236;28;20033;-87
2021/10/06 00:03:07;;;;;;;6.10;3.47;;;12.30;97.80;;;;;;5032353;28;20486;-87
2021/10/06 00:05:36;;;;;;;5.60;3.20;;;12.30;98.10;;;;;;5044740;28;20025;-87
2021/10/06 00:08:02;;;;;;;5.38;3.40;;;12.30;98.10;;;;;;5020336;28;20029;-87
2021/10/06 00:10:35;;;;;;;7.97;3.13;;;12.30;98.40;;;;;;5032329;28;20048;-87
2021/10/06 00:13:01;;;;;;;6.45;3.10;;;12.30;98.30;;;;;;5023275;28;20391;-87
2021/10/06 00:15:26;;;;;;;7.28;2.90;;;12.30;98.50;;;;;;5012043;28;20036;-87
2021/10/06 00:18:01;;;;;;;7.28;3.25;;;12.30;98.50;;;;;;5000865;28;20029;-88
2021/10/06 00:20:27;;;;;;;8.85;2.90;;;12.30;98.50;;;;;;5037262;28;20108;-87
2021/10/06 00:23:15;;;;;;;7.82;2.92;;;12.30;98.50;;;;;;5037705;28;20092;-88
2021/10/06 00:25:46;;;;;;;6.47;2.17;;;12.30;98.50;;;;;;5038017;28;20028;-87
2021/10/06 00:28:12;;;;;;;5.65;2.88;;;12.30;98.60;;;;;;5038279;28;20037;-87
2021/10/06 00:30:38;;;;;;;10.32;2.83;;;12.20;98.50;;;;;;5041261;28;20375;-88
2021/10/06 00:33:03;;;;;;;6.13;2.50;;;12.20;98.40;;;;;;5029595;28;20036;-87
2021/10/06 00:35:32;;;;;;;6.78;2.72;;;12.20;98.30;;;;;;5040744;28;20025;-87
2021/10/06 00:38:04;;;;;;;7.10;2.63;;;12.20;98.60;;;;;;5047257;28;20074;-88
2021/10/06 00:40:30;;;;;;;7.47;2.17;;;12.20;98.30;;;;;;5033130;28;20049;-86
2021/10/06 00:43:08;;;;;;;7.00;2.28;;;12.20;98.30;;;;;;5040214;28;20053;-90
2021/10/06 00:45:40;;;;;;;8.63;2.00;;;12.20;98.30;;;;;;5027454;28;20021;-90
2021/10/06 00:48:12;;;;;;;6.82;1.90;;;12.20;98.20;;;;;;5033406;28;20060;-90
2021/10/06 00:50:38;;;;;;;8.88;2.17;;;12.20;98.40;;;;;;5033885;28;20049;-91
2021/10/06 00:53:16;;;;;;;6.38;2.13;;;12.20;98.30;;;;;;5013694;28;20050;-91
2021/10/06 00:55:52;;;;;;;7.80;2.15;;;12.20;98.20;;;;;;5030769;28;20389;-90
2021/10/06 00:58:19;;;;;;;6.53;1.73;;;12.20;98.40;;;;;;5033520;28;20116;-89
2021/10/06 01:00:57;;;;;;;8.45;2.05;;;12.20;98.20;;;;;;5033629;28;20386;-89
2021/10/06 01:03:32;;;;;;;4.07;1.35;;;12.20;98.30;;;;;;5033622;28;20018;-89
2021/10/06 01:06:01;;;;;;;7.38;1.65;;;12.20;98.30;;;;;;5016738;28;20103;-90
2021/10/06 01:08:27;;;;;;;6.57;1.80;;;12.30;98.40;;;;;;5002804;28;20024;-89
2021/10/06 01:10:53;;;;;;;6.72;1.73;;;12.20;98.00;;;;;;5016721;28;20026;-88
2021/10/06 01:13:35;;;;;;;;;;;;;;;;;;;;;
2021/10/06 01:16:01;;;;;;;5.88;1.55;;;12.30;98.30;;;;;;4992952;28;20034;-88
2021/10/06 01:18:30;;;;;;;6.63;1.60;;;12.20;98.30;;;;;;4976733;28;20133;-89
2021/10/06 01:21:14;;;;;;;9.13;1.80;;;12.30;98.10;;;;;;4979350;28;20038;-91
2021/10/06 01:24:11;;;;;;;5.45;1.55;;;12.30;98.00;;;;;;4977192;28;20124;-92
2021/10/06 01:26:37;;;;;;;5.82;1.73;;;12.20;97.80;;;;;;4976816;28;20121;-91
2021/10/06 01:32:24;;;;;;;7.50;1.60;;;12.20;97.70;;;;;;4993062;28;20511;-92
2021/10/06 01:35:27;;;;;;;11.38;2.97;;;12.20;97.90;;;;;;4975260;28;20035;-92
2021/10/06 01:37:53;;;;;;;7.32;2.60;;;12.20;97.50;;;;;;4980395;28;20022;-90
2021/10/06 01:40:24;;;;;;;6.07;1.50;;;12.20;97.70;;;;;;4991811;28;20053;-90
2021/10/06 01:42:53;;;;;;;6.28;1.40;;;12.30;97.80;;;;;;4976903;28;20483;-90
2021/10/06 01:45:44;;;;;;;9.18;1.85;;;12.20;97.60;;;;;;4993166;28;20527;-90
2021/10/06 01:48:16;;;;;;;8.45;2.58;;;12.30;97.70;;;;;;4993020;28;20027;-90
2021/10/06 01:50:48;;;;;;;7.30;1.70;;;12.30;98.10;;;;;;4993165;28;20022;-89
2021/10/06 01:55:48;;;;;;;6.63;2.00;;;12.30;98.30;;;;;;5030524;28;20080;-86
2021/10/06 01:58:19;;;;;;;6.65;1.67;;;12.20;98.20;;;;;;5015633;28;20478;-90
2021/10/06 02:00:48;;;;;;;11.05;2.42;;;12.20;98.40;;;;;;5032885;28;20359;-89
2021/10/06 02:03:13;;;;;;;5.70;1.83;;;12.20;98.20;;;;;;5022844;28;20037;-89
2021/10/06 02:05:39;;;;;;;5.68;1.50;;;12.20;98.40;;;;;;5032831;28;20457;-91
2021/10/06 02:08:06;;;;;;;4.93;1.40;;;12.20;98.30;;;;;;5035431;28;20108;-89
2021/10/06 02:10:32;;;;;;;7.00;1.77;;;12.20;98.30;;;;;;5018960;28;20029;-91
2021/10/06 02:12:59;;;;;;;8.32;1.70;;;12.20;98.60;;;;;;5003564;28;20523;-90
2021/10/06 02:15:25;;;;;;;9.73;1.73;;;12.20;98.60;;;;;;5021004;28;20033;-89
2021/10/06 02:17:52;;;;;;;5.05;1.60;;;12.20;98.70;;;;;;5054802;28;20026;-90
2021/10/06 02:20:17;;;;;;;6.68;1.60;;;12.20;98.40;;;;;;5035884;28;20131;-91
2021/10/06 02:22:44;;;;;;;7.63;1.65;;;12.20;98.70;;;;;;5002129;28;20050;-90
2021/10/06 02:25:12;;;;;;;4.72;1.88;;;12.20;98.60;;;;;;5052274;28;20116;-91
2021/10/06 02:27:39;;;;;;;7.55;2.00;;;12.10;98.50;;;;;;5001291;28;20029;-90
2021/10/06 02:30:06;;;;;;;7.50;1.70;;;12.10;98.70;;;;;;5022564;28;20033;-91
2021/10/06 02:32:32;;;;;;;6.00;1.55;;;12.10;98.40;;;;;;5018551;28;20033;-90
2021/10/06 02:34:58;;;;;;;8.23;2.85;;;12.00;98.50;;;;;;5036223;28;20450;-90
2021/10/06 02:37:24;;;;;;;7.15;2.25;;;12.00;98.60;;;;;;5035538;28;20030;-90
2021/10/06 02:39:49;;;;;;;8.50;2.00;;;12.00;98.50;;;;;;5051908;28;20021;-90
2021/10/06 02:42:15;;;;;;;7.40;1.90;;;12.00;98.70;;;;;;5016974;28;20068;-91
2021/10/06 02:44:41;;;;;;;8.43;2.50;;;12.00;98.70;;;;;;5001209;28;20421;-91
2021/10/06 02:47:09;;;;;;;5.50;1.50;;;12.00;98.60;;;;;;5022443;28;20108;-91
2021/10/06 02:49:36;;;;;;;9.45;1.92;;;12.00;98.70;;;;;;5017763;28;20033;-90
2021/10/06 02:52:03;;;;;;;6.40;2.28;;;12.00;98.70;;;;;;5035742;28;20112;-91
2021/10/06 02:54:31;;;;;;;10.15;1.70;;;12.00;98.80;;;;;;5034250;28;20128;-90
2021/10/06 02:57:04;;;;;;;6.80;1.70;;;12.00;98.70;;;;;;5016990;28;20112;-91
2021/10/06 02:59:33;;;;;;;4.22;2.00;;;12.00;98.90;;;;;;5033209;28;20030;-91
2021/10/06 03:01:59;;;;;;;8.48;2.20;;;12.00;99.00;;;;;;5026053;28;20006;-92
2021/10/06 03:04:25;;;;;;;12.95;2.35;;;12.00;99.30;;;;;;5057433;28;20029;-91
2021/10/06 03:06:51;;;;;;;6.70;2.17;;;11.90;98.80;;;;;;5057889;28;20017;-89
2021/10/06 03:09:17;;;;;;;7.65;1.98;;;11.90;99.10;;;;;;5057834;28;20066;-92
2021/10/06 03:11:46;;;;;;;8.93;2.78;;;11.90;98.90;;;;;;5066912;28;20013;-91
2021/10/06 03:14:12;;;;;;;4.88;1.92;;;11.90;99.00;;;;;;5073801;28;20062;-90
2021/10/06 03:16:38;;;;;;;7.93;2.00;;;11.90;98.90;;;;;;5057260;28;20065;-92
2021/10/06 03:19:04;;;;;;;8.43;2.13;;;11.90;99.10;;;;;;5039438;28;20030;-91
2021/10/06 03:21:30;;;;;;;7.82;2.35;;;11.90;98.90;;;;;;5025569;28;20037;-89
2021/10/06 03:23:56;;;;;;;6.63;2.00;;;11.90;99.10;;;;;;5017797;28;20091;-90
2021/10/06 03:26:22;;;;;;;8.48;2.20;;;11.90;99.00;;;;;;5017902;28;20034;-89
2021/10/06 03:28:48;;;;;;;8.23;2.30;;;11.90;99.10;;;;;;5017735;28;20128;-89
2021/10/06 03:31:13;;;;;;;9.02;2.13;;;11.90;99.20;;;;;;5017456;28;20504;-89
2021/10/06 03:33:39;;;;;;;9.02;2.78;;;11.80;99.10;;;;;;5017703;28;20033;-89
2021/10/06 03:36:05;;;;;;;5.57;1.88;;;11.80;99.10;;;;;;5033860;28;20017;-90
2021/10/06 03:38:30;;;;;;;6.55;2.22;;;11.80;99.30;;;;;;5017589;28;20480;-90
2021/10/06 03:40:57;;;;;;;6.80;2.20;;;11.80;99.20;;;;;;5017413;28;20036;-90
2021/10/06 03:43:22;;;;;;;7.45;2.63;;;11.80;99.20;;;;;;5033502;28;20124;-89
2021/10/06 03:45:48;;;;;;;7.60;2.15;;;11.70;99.00;;;;;;5033856;28;20108;-89
2021/10/06 03:48:14;;;;;;;7.85;2.40;;;11.80;99.30;;;;;;5029753;28;20495;-89
2021/10/06 03:50:40;;;;;;;8.50;2.53;;;11.70;99.50;;;;;;5024854;28;20076;-91
2021/10/06 03:53:06;;;;;;;8.48;3.30;;;11.80;99.50;;;;;;5000665;28;20026;-90
2021/10/06 03:55:32;;;;;;;7.50;2.10;;;11.80;99.40;;;;;;5016830;28;20054;-90
2021/10/06 03:57:58;;;;;;;9.35;2.72;;;11.80;99.40;;;;;;5033299;28;20536;-89
2021/10/06 04:00:23;;;;;;;10.90;2.13;;;11.80;99.50;;;;;;5016927;28;20034;-89
2021/10/06 04:02:49;;;;;;;6.00;1.90;;;11.80;99.50;;;;;;5034160;28;20033;-89
2021/10/06 04:05:15;;;;;;;7.97;1.90;;;11.80;99.60;;;;;;5016494;28;20029;-89
2021/10/06 04:07:44;;;;;;;9.30;2.45;;;11.70;99.60;;;;;;5032615;28;20025;-88
2021/10/06 04:10:09;;;;;;;8.77;2.10;;;11.70;99.60;;;;;;4999857;28;20026;-88
2021/10/06 04:12:35;;;;;;;8.57;2.47;;;11.70;99.60;;;;;;5048760;28;20037;-88
2021/10/06 04:15:01;;;;;;;6.60;2.28;;;11.70;99.70;;;;;;5016379;28;20179;-88
2021/10/06 04:17:27;;;;;;;6.57;2.13;;;11.70;99.90;;;;;;5032063;28;20493;-88
2021/10/06 04:19:55;;;;;;;9.25;2.10;;;11.60;99.90;;;;;;5016227;28;20033;-89
2021/10/06 04:22:20;;;;;;;4.93;1.92;;;11.60;99.90;;;;;;5012510;28;20132;-87
2021/10/06 04:24:56;;;;;;;4.15;1.60;;;11.60;99.90;;;;;;5002841;28;20159;-88
2021/10/06 04:27:22;;;;;;;5.68;1.63;;;11.60;99.90;;;;;;4999036;28;20034;-89
2021/10/06 04:29:47;;;;;;;6.88;2.03;;;11.50;99.90;;;;;;5030969;28;20025;-89
2021/10/06 04:32:13;;;;;;;5.97;1.80;;;11.50;99.90;;;;;;5017772;28;20026;-89
2021/10/06 04:34:39;;;;;;;4.85;2.05;;;11.40;99.90;;;;;;5048114;28;20096;-87
2021/10/06 04:37:05;;;;;;;9.13;2.40;;;11.30;99.90;;;;;;5016749;28;20036;-88
2021/10/06 04:39:33;;;;;;;6.25;2.10;;;11.30;99.90;;;;;;5032677;28;20480;-86
2021/10/06 04:41:58;;;;;;;8.38;2.40;;;11.20;99.90;;;;;;5033168;28;20553;-88
2021/10/06 04:44:24;;;;;;;9.23;2.55;;;11.20;99.90;;;;;;5032299;28;20131;-88
2021/10/06 04:46:50;;;;;;;9.20;2.25;;;11.10;99.90;;;;;;5032440;28;20096;-88
2021/10/06 04:49:16;;;;;;;6.72;2.58;;;11.10;99.90;;;;;;5015446;28;20033;-88
2021/10/06 04:51:42;;;;;;;6.93;2.65;;;11.10;99.90;;;;;;5031248;28;20026;-88
2021/10/06 04:54:13;;;;;;;11.40;3.55;;;11.10;99.90;;;;;;5030920;28;20060;-88
2021/10/06 04:56:39;;;;;;;7.22;2.63;;;11.10;99.90;;;;;;5015326;28;20071;-87
2021/10/06 04:59:12;;;;;;;7.47;2.65;;;11.10;99.90;;;;;;5013428;28;20038;-89
2021/10/06 05:01:41;;;;;;;9.77;2.78;;;11.10;99.90;;;;;;5015426;28;20128;-87
2021/10/06 05:04:06;;;;;;;10.60;3.50;;;11.10;99.90;;;;;;5033068;28;20029;-88
2021/10/06 05:06:32;;;;;;;6.55;2.90;;;11.10;99.90;;;;;;5032103;28;20022;-88
2021/10/06 05:08:58;;;;;;;9.43;2.50;;;11.10;99.90;;;;;;5032648;28;20029;-88
2021/10/06 05:11:24;;;;;;;5.82;2.78;;;11.00;99.90;;;;;;5048664;28;20132;-88
2021/10/06 05:13:53;;;;;;;11.27;3.53;;;11.10;99.90;;;;;;5032621;28;20462;-88
2021/10/06 05:16:18;;;;;;;11.52;3.58;;;11.10;99.90;;;;;;5032505;28;20033;-87
2021/10/06 05:18:49;;;;;;;17.60;3.50;;;11.00;99.90;;;;;;5032634;28;20021;-88
2021/10/06 05:21:17;;;;;;;10.27;3.40;;;11.00;99.90;;;;;;5032626;28;20048;-88
2021/10/06 05:23:45;;;;;;;8.35;3.30;;;11.00;99.90;;;;;;5031902;28;20030;-88
2021/10/06 05:26:11;;;;;;;11.45;4.03;;;10.90;99.90;;;;;;5015971;28;20030;-88
2021/10/06 05:28:37;;;;;;;9.32;3.40;;;11.00;99.90;;;;;;5039842;28;20024;-88
2021/10/06 05:31:05;;;;;;;12.20;4.43;;;11.00;99.90;;;;;;5029008;28;20053;-89
2021/10/06 05:33:33;;;;;;;19.15;3.65;;;11.00;99.90;;;;;;5013613;28;20044;-87
2021/10/06 05:36:01;;;;;;;9.73;3.03;;;10.90;99.90;;;;;;5014531;28;20033;-88
2021/10/06 05:38:26;;;;;;;5.80;3.53;;;10.90;99.90;;;;;;5016258;28;20037;-86
2021/10/06 05:40:59;;;;;;;7.97;3.28;;;10.90;99.90;;;;;;5032124;28;20025;-88
2021/10/06 05:43:25;;;;;;;11.25;3.40;;;10.90;99.90;;;;;;5034636;28;20045;-90
2021/10/06 05:45:54;;;;;;;15.10;4.70;;;10.80;99.90;;;;;;5021925;28;20026;-90
2021/10/06 05:48:19;;;;;;;10.40;4.22;;;10.80;99.90;;;;;;5033096;28;20052;-89
2021/10/06 05:50:50;;;;;;;11.30;3.97;;;10.80;99.90;;;;;;5015115;28;20389;-87
2021/10/06 05:53:17;;;;;;;9.52;3.80;;;10.80;99.90;;;;;;5048828;28;20075;-89
2021/10/06 05:55:43;;;;;;;10.80;4.28;;;10.80;99.90;;;;;;5034490;28;20046;-87
2021/10/06 05:58:18;;;;;;;10.70;3.83;;;10.80;99.90;;;;;;5017691;28;20033;-90
2021/10/06 06:00:44;;;;;;;11.30;3.55;;;10.80;99.90;;;;;;5049237;28;20029;-88
2021/10/06 06:03:13;;;;;;;13.32;4.45;;;10.80;99.90;;;;;;5050713;28;20033;-89
2021/10/06 06:05:40;;;;;;;12.98;4.05;;;10.80;99.90;;;;;;5016663;28;20036;-89
2021/10/06 06:08:09;;;;;;;11.65;4.00;;;10.80;99.90;;;;;;5045625;28;20044;-91
2021/10/06 06:10:56;;;;;;;14.80;4.80;;;10.80;99.90;;;;;;5047267;28;20025;-88
2021/10/06 06:13:21;;;;;;;8.90;3.88;;;10.80;99.90;;;;;;5025271;28;20125;-88
2021/10/06 06:15:53;;;;;;;11.20;4.22;;;10.80;99.90;;;;;;5023677;28;20108;-90
2021/10/06 06:18:21;;;;;;;10.30;4.30;;;10.80;99.90;;;;;;5048621;28;20036;-88
2021/10/06 06:21:04;;;;;;;11.98;4.53;;;10.70;99.90;;;;;;5035586;28;20370;-88
2021/10/06 06:23:31;;;;;;;10.05;4.47;;;10.70;99.90;;;;;;5031071;28;20448;-87
2021/10/06 06:25:57;;;;;;;9.82;5.20;;;10.70;99.90;;;;;;5051408;28;20108;-89
2021/10/06 06:28:23;;;;;;;13.10;5.47;;;10.70;99.90;;;;;;5047780;28;20009;-88
2021/10/06 06:30:59;;;;;;;10.82;4.53;;;10.70;99.90;;;;;;5030324;28;20052;-90
2021/10/06 06:33:24;;;;;;;9.85;4.07;;;10.70;99.90;;;;;;5035063;28;20053;-88
2021/10/06 06:35:59;;;;;;;10.27;4.30;;;10.70;99.90;;;;;;5026928;28;20022;-89
2021/10/06 06:38:33;;;;;;;9.50;4.18;;;10.80;99.90;;;;;;5036423;28;20029;-89
2021/10/06 06:40:59;;;;;;;10.57;4.03;;;10.80;99.90;;;;;;5039296;28;20025;-90
2021/10/06 06:43:35;;;;;;;14.93;5.50;;;10.80;99.90;;;;;;5043657;28;20008;-89
2021/10/06 06:46:01;;;;;;;9.48;4.90;;;10.70;99.90;;;;;;5047092;28;20039;-90
2021/10/06 06:48:27;;;;;;;9.85;4.93;;;10.80;99.90;;;;;;5058719;28;19998;-89
2021/10/06 06:50:56;;;;;;;13.65;5.05;;;10.80;99.90;;;;;;5068835;28;20010;-89
2021/10/06 06:53:27;;;;;;;12.48;5.43;;;10.80;99.90;;;;;;5069585;28;20072;-90
2021/10/06 06:55:58;;;;;;;7.40;4.70;;;10.80;99.90;;;;;;5068953;28;20036;-89
2021/10/06 06:58:26;;;;;;;;;;;10.80;99.90;;;;;;5057825;28;20013;-89
2021/10/06 07:00:52;;;;;;;9.13;4.90;;;10.80;99.90;;;;;;5056934;28;19940;-89
2021/10/06 07:03:31;;;;;;;8.27;5.10;;;10.80;99.90;;;;;;5054489;28;20139;-90
2021/10/06 07:05:57;;;;;;;11.27;5.47;;;10.80;99.90;;;;;;5034615;28;20466;-88
2021/10/06 07:08:23;;;;;;;12.25;4.90;;;10.80;99.90;;;;;;5034544;28;20036;-89
2021/10/06 07:10:51;;;;;;;10.63;4.80;;;10.80;99.90;;;;;;5049885;28;20056;-88
2021/10/06 07:13:19;;;;;;;11.68;4.90;;;10.80;99.90;;;;;;5030293;28;20026;-88
2021/10/06 07:15:44;;;;;;;10.13;4.35;;;10.80;99.90;;;;;;5035073;28;20104;-88
2021/10/06 07:18:10;;;;;;;9.95;4.50;;;10.80;99.90;;;;;;5048671;28;20104;-88
2021/10/06 07:20:38;;;;;;;10.95;4.95;;;10.80;99.90;;;;;;5048642;28;20018;-89
2021/10/06 07:23:09;;;;;;;13.32;5.45;;;10.80;99.90;;;;;;5047284;28;20030;-89
2021/10/06 07:25:37;;;;;;;10.27;5.13;;;10.90;99.90;;;;;;5034072;28;20026;-89
2021/10/06 07:28:03;;;;;;;14.65;4.60;;;10.90;99.90;;;;;;5031366;28;20026;-88
2021/10/06 07:30:29;;;;;;;9.02;4.32;;;10.90;99.90;;;;;;5048751;28;20029;-88
2021/10/06 07:32:58;;;;;;;7.60;5.28;;;10.90;99.90;;;;;;5029527;28;20107;-89
2021/10/06 07:35:24;;;;;;;9.80;4.57;;;10.90;99.90;;;;;;5047435;28;20029;-88
2021/10/06 07:37:50;;;;;;;9.13;4.53;;;10.90;99.90;;;;;;5030381;28;20037;-88
2021/10/06 07:40:18;;;;;;;10.30;5.13;;;10.90;99.90;;;;;;5027245;28;20022;-93
2021/10/06 07:42:44;;;;;;;10.18;4.47;;;11.00;99.90;;;;;;5033944;28;20033;-89
2021/10/06 07:45:15;;;;;;;11.65;4.50;;;11.00;99.90;;;;;;5049968;28;20021;-88
2021/10/06 07:47:41;;;;;;;8.35;4.80;;;11.00;99.90;;;;;;5035908;28;20017;-89
2021/10/06 07:50:09;;;;;;;13.20;5.47;;;11.00;99.90;;;;;;5030137;28;20028;-89
2021/10/06 07:52:49;;;;;;;8.80;4.88;;;11.00;99.90;;;;;;5029230;28;20041;-89
2021/10/06 07:55:15;;;;;;;7.65;4.78;;;11.10;99.90;;;;;;5046510;28;20667;-85
2021/10/06 07:57:41;;;;;;;12.82;5.63;;;11.10;99.90;;;;;;5050605;28;20037;-88
2021/10/06 08:00:08;;;;;;;11.95;5.78;;;11.10;99.90;;;;;;5033038;28;20018;-87
2021/10/06 08:02:37;;;;;;;10.48;5.28;;;11.10;99.90;;;;;;5030657;28;20044;-88
2021/10/06 08:05:06;;;;;;;9.63;5.07;;;11.10;99.90;;;;;;5046608;28;20036;-87
2021/10/06 08:07:32;;;;;;;8.90;5.57;;;11.10;99.90;;;;;;5032603;28;20031;-89
2021/10/06 08:10:00;;;;;;;8.65;5.38;;;11.10;99.90;;;;;;5042904;28;20104;-88
2021/10/06 08:12:29;;;;;;;10.60;5.07;;;11.10;99.90;;;;;;5031037;28;20030;-89
2021/10/06 08:14:57;;;;;;;8.45;5.38;;;11.10;99.90;;;;;;5030386;28;20048;-87
2021/10/06 08:17:25;;;;;;;8.85;5.55;;;11.10;99.90;;;;;;5013824;28;20032;-88
2021/10/06 08:19:58;;;;;;;10.40;5.20;;;11.10;99.90;;;;;;5031032;28;20021;-88
2021/10/06 08:22:26;;;;;;;10.93;5.40;;;11.10;99.90;;;;;;5044552;28;20115;-88
2021/10/06 08:24:52;;;;;;;9.38;5.10;;;11.10;99.90;;;;;;5046225;28;20082;-88
2021/10/06 08:27:18;;;;;;;6.70;4.75;;;11.10;99.90;;;;;;5027128;28;20389;-88
2021/10/06 08:29:43;;;;;;;8.45;5.20;;;11.10;99.90;;;;;;5043950;28;20787;-89
2021/10/06 08:32:09;;;;;;;10.27;5.25;;;11.10;99.90;;;;;;5046517;28;20017;-89
2021/10/06 08:34:35;;;;;;;9.75;5.13;;;11.10;99.90;;;;;;5027330;28;20492;-86
2021/10/06 08:37:05;;;;;;;9.20;5.15;;;11.20;99.90;;;;;;5044245;28;20481;-88
2021/10/06 08:39:31;;;;;;;9.37;5.07;;;11.20;99.90;;;;;;5031242;28;20049;-86
2021/10/06 08:42:07;;;;;;;;;;;;;;;;;;;;;
2021/10/06 08:44:34;;;;;;;9.20;4.85;;;11.20;99.90;;;;;;5024231;28;20492;-87
2021/10/06 08:47:18;;;;;;;16.08;9.80;;;11.20;99.90;;;;;;5038096;28;20037;-89
2021/10/06 08:49:44;;;;;;;14.43;10.25;;;11.30;99.90;;;;;;5030729;28;20030;-88
2021/10/06 08:52:13;;;;;;;36.47;23.65;;;11.30;99.90;;;;;;5032215;28;20044;-89
2021/10/06 08:54:38;;;;;;;8.35;6.05;;;11.30;99.90;;;;;;5012184;28;20028;-88
2021/10/06 08:57:04;;;;;;;9.02;6.88;;;11.30;99.90;;;;;;5044772;28;20053;-89
2021/10/06 08:59:32;;;;;;;8.38;6.53;;;11.40;99.90;;;;;;5045639;28;20021;-87
2021/10/06 09:02:10;;;;;;;7.97;5.35;;;11.40;99.90;;;;;;5026648;28;20034;-88
2021/10/06 09:04:39;;;;;;;8.38;6.10;;;11.40;99.90;;;;;;5045530;28;20073;-88
2021/10/06 09:07:05;;;;;;;7.97;5.15;;;11.50;99.90;;;;;;5029572;28;20523;-88
2021/10/06 09:09:33;;;;;;;10.68;6.13;;;11.50;99.90;;;;;;5032538;28;20025;-89
2021/10/06 09:12:02;;;;;;;8.82;6.20;;;11.50;99.90;;;;;;5044695;28;20028;-88
2021/10/06 09:14:33;;;;;;;9.68;6.65;;;11.60;99.90;;;;;;5030889;28;20037;-88
2021/10/06 09:17:06;;;;;;;7.72;6.18;;;11.60;99.90;;;;;;5030077;28;20875;-88
2021/10/06 09:19:37;;;;;;;9.27;6.68;;;11.60;99.90;;;;;;5051918;28;20022;-88
2021/10/06 09:22:03;;;;;;;11.05;7.43;;;11.60;99.90;;;;;;5050156;28;20036;-87
2021/10/06 09:24:52;;;;;;;9.10;6.07;;;11.70;99.90;;;;;;5052230;28;20041;-88
2021/10/06 09:27:23;;;;;;;8.32;5.82;;;11.70;99.90;;;;;;5036942;28;20117;-88
2021/10/06 09:29:56;;;;;;;11.45;6.30;;;11.70;99.90;;;;;;5036506;28;20120;-88
2021/10/06 09:32:24;;;;;;;11.38;6.60;;;11.80;99.90;;;;;;5038010;28;20080;-89
2021/10/06 09:35:06;;;;;;;9.60;5.70;;;11.80;99.90;;;;;;5035948;28;20116;-88
2021/10/06 09:37:32;;;;;;;10.73;5.63;;;11.80;99.90;;;;;;5032077;28;20029;-87
2021/10/06 09:39:58;;;;;;;8.75;5.22;;;11.80;99.90;;;;;;5053700;28;20121;-88
2021/10/06 09:42:24;;;;;;;11.50;5.38;;;11.80;99.90;;;;;;5036384;28;20127;-87
2021/10/06 09:44:56;;;;;;;9.20;5.05;;;11.90;99.90;;;;;;5036003;28;20486;-87
2021/10/06 09:47:23;;;;;;;8.93;4.97;;;11.90;99.90;;;;;;5036392;28;20028;-88
2021/10/06 09:49:55;;;;;;;8.90;4.97;;;11.90;99.90;;;;;;5052088;28;20056;-88
2021/10/06 09:52:33;;;;;;;11.15;5.00;;;11.90;99.90;;;;;;5030162;28;20565;-87
2021/10/06 09:55:07;;;;;;;8.38;3.83;;;12.00;99.90;;;;;;5024468;28;20080;-88
2021/10/06 09:57:39;;;;;;;9.60;3.47;;;12.00;99.90;;;;;;5011681;28;20041;-87
2021/10/06 10:00:06;;;;;;;7.90;2.90;;;12.00;99.90;;;;;;5030939;28;20089;-87
2021/10/06 10:02:33;;;;;;;7.50;3.38;;;12.00;99.90;;;;;;5030074;28;20108;-91
2021/10/06 10:04:59;;;;;;;9.55;5.05;;;12.00;99.90;;;;;;5051667;28;20084;-87
2021/10/06 10:07:26;;;;;;;9.48;5.00;;;12.00;99.90;;;;;;5030829;28;20029;-86
2021/10/06 10:09:52;;;;;;;8.35;6.07;;;12.00;99.90;;;;;;5052034;28;20025;-86
2021/10/06 10:12:22;;;;;;;10.98;5.85;;;12.00;99.90;;;;;;5031550;28;20021;-92
2021/10/06 10:14:51;;;;;;;14.18;6.45;;;12.00;99.90;;;;;;5036923;28;20063;-94
2021/10/06 10:17:17;;;;;;;11.23;6.10;;;12.00;99.90;;;;;;5032724;28;20022;-87
2021/10/06 10:19:46;;;;;;;11.60;6.15;;;12.00;99.90;;;;;;5036755;28;20096;-88
2021/10/06 10:22:18;;;;;;;10.52;5.05;;;12.00;99.90;;;;;;5053083;28;20020;-88
2021/10/06 10:24:46;;;;;;;10.57;5.60;;;12.00;99.90;;;;;;5025305;28;20033;-88
2021/10/06 10:27:18;;;;;;;14.07;6.68;;;12.10;99.90;;;;;;5030520;28;20030;-88
2021/10/06 10:30:07;;;;;;;11.07;5.70;;;12.10;99.90;;;;;;5053773;28;20028;-89
2021/10/06 10:32:44;;;;;;;8.45;5.30;;;12.20;99.90;;;;;;5057143;28;20022;-88
2021/10/06 10:35:30;;;;;;;11.02;5.20;;;12.20;99.90;;;;;;5056530;28;20036;-88
2021/10/06 10:38:02;;;;;;;9.77;4.95;;;12.20;99.90;;;;;;5043085;28;20076;-88
2021/10/06 10:40:34;;;;;;;14.75;5.80;;;12.30;99.90;;;;;;5056929;28;20041;-89
2021/10/06 10:43:03;;;;;;;11.63;4.95;;;12.30;99.90;;;;;;5072601;28;20052;-89
2021/10/06 10:45:49;;;;;;;8.95;5.20;;;12.40;99.90;;;;;;5071570;28;20105;-88
2021/10/06 10:48:23;;;;;;;12.80;5.03;;;12.50;99.90;;;;;;5041533;28;20044;-87
2021/10/06 10:50:49;;;;;;;16.60;4.60;;;12.60;99.90;;;;;;5034592;28;20112;-88
2021/10/06 10:53:17;;;;;;;9.52;4.07;;;12.60;99.90;;;;;;5020366;28;20469;-89
2021/10/06 10:56:02;;;;;;;13.82;4.32;;;12.70;99.90;;;;;;5021754;28;20057;-89
2021/10/06 10:58:29;;;;;;;14.70;4.25;;;12.80;99.90;;;;;;5019037;28;20045;-83
2021/10/06 11:00:56;;;;;;;13.52;3.90;;;12.80;99.90;;;;;;5034045;28;20083;-88
2021/10/06 11:03:22;;;;;;;11.00;4.50;;;12.80;99.90;;;;;;5033998;28;20041;-87
2021/10/06 11:05:49;;;;;;;11.90;3.92;;;12.90;99.90;;;;;;5034166;28;20029;-87
2021/10/06 11:08:26;;;;;;;8.35;3.17;;;13.00;99.90;;;;;;5050184;28;20028;-89
2021/10/06 11:11:12;;;;;;;15.13;4.13;;;13.10;99.90;;;;;;5034239;28;20029;-87
2021/10/06 11:13:44;;;;;;;11.35;3.95;;;13.20;99.90;;;;;;5028690;28;20041;-88
2021/10/06 11:16:10;;;;;;;6.93;3.03;;;13.20;99.90;;;;;;5032600;28;20075;-87
2021/10/06 11:18:51;;;;;;;10.20;3.70;;;13.20;99.90;;;;;;5050531;28;20029;-88
2021/10/06 11:21:39;;;;;;;7.70;3.47;;;13.30;99.90;;;;;;5015264;28;20469;-88
2021/10/06 11:24:20;;;;;;;9.23;3.45;;;13.30;99.90;;;;;;5034824;28;20038;-88
2021/10/06 11:26:46;;;;;;;12.38;3.08;;;13.40;99.90;;;;;;5051287;28;20030;-87
2021/10/06 11:29:12;;;;;;;9.35;3.20;;;13.40;99.90;;;;;;5016983;28;20070;-89
2021/10/06 11:31:40;;;;;;;11.00;3.67;;;13.40;99.90;;;;;;5033845;28;20030;-88
2021/10/06 11:34:17;;;;;;;11.23;2.60;;;13.40;99.90;;;;;;5033663;28;20059;-88
2021/10/06 11:36:53;;;;;;;7.28;2.72;;;13.40;99.90;;;;;;5034182;28;20024;-88
2021/10/06 11:39:25;;;;;;;7.07;2.88;;;13.40;99.90;;;;;;5028575;28;20160;-87
2021/10/06 11:41:52;;;;;;;6.25;2.60;;;13.40;99.90;;;;;;5037343;28;20164;-88
2021/10/06 11:44:28;;;;;;;6.10;2.92;;;13.40;99.90;;;;;;5030647;28;20021;-89
2021/10/06 11:47:05;;;;;;;9.80;3.40;;;13.40;99.90;;;;;;5033324;28;20033;-88
2021/10/06 11:49:33;;;;;;;8.27;3.67;;;13.30;99.90;;;;;;5033416;28;20026;-88
2021/10/06 11:52:00;;;;;;;11.38;3.80;;;13.30;99.90;;;;;;5033421;28;20627;-88
2021/10/06 11:54:27;;;;;;;12.60;4.43;;;13.30;99.90;;;;;;5051143;28;20037;-87
2021/10/06 11:56:58;;;;;;;9.25;3.72;;;13.30;99.90;;;;;;5033231;28;20053;-88
2021/10/06 11:59:30;;;;;;;7.53;3.58;;;13.40;99.90;;;;;;5029431;28;20539;-88
2021/10/06 12:02:09;;;;;;;11.40;4.53;;;13.40;99.90;;;;;;5035082;28;20026;-88
2021/10/06 12:04:40;;;;;;;10.10;3.55;;;13.40;99.90;;;;;;5021308;28;20033;-87
2021/10/06 12:07:18;;;;;;;12.32;3.97;;;13.40;99.90;;;;;;5032360;28;20112;-88
2021/10/06 12:09:50;;;;;;;7.57;3.45;;;13.40;99.90;;;;;;5032148;28;20041;-88
2021/10/06 12:12:30;;;;;;;10.90;4.18;;;13.50;99.90;;;;;;5032232;28;20025;-88
2021/10/06 12:15:05;;;;;;;12.18;4.00;;;13.50;99.90;;;;;;5028862;28;20526;-90
2021/10/06 12:17:36;;;;;;;10.65;4.10;;;13.50;99.90;;;;;;5047956;28;20053;-87
2021/10/06 12:20:08;;;;;;;14.15;4.38;;;13.60;99.90;;;;;;5015135;28;20079;-87
2021/10/06 12:22:48;;;;;;;10.63;5.20;;;13.60;99.90;;;;;;5031155;28;20033;-87
2021/10/06 12:25:33;;;;;;;12.60;6.22;;;13.60;99.90;;;;;;5032117;28;20067;-87
2021/10/06 12:28:11;;;;;;;10.95;5.88;;;13.70;99.90;;;;;;5022138;28;20370;-86
2021/10/06 12:30:38;;;;;;;11.18;5.90;;;13.70;99.90;;;;;;5032604;28;20381;-87
2021/10/06 12:33:06;;;;;;;13.00;4.57;;;13.80;99.90;;;;;;5015736;28;20037;-88
2021/10/06 12:35:47;;;;;;;11.18;3.88;;;13.80;99.90;;;;;;5032352;28;20470;-87
2021/10/06 12:38:14;;;;;;;11.93;4.57;;;13.80;99.90;;;;;;5023493;28;20029;-87
2021/10/06 12:40:50;;;;;;;12.93;3.83;;;13.80;99.90;;;;;;5028282;28;20013;-87
2021/10/06 12:43:17;;;;;;;9.63;4.00;;;13.90;99.90;;;;;;5048946;28;20033;-86
2021/10/06 12:46:02;;;;;;;12.13;6.68;;;13.90;99.90;;;;;;5032987;28;20132;-86
2021/10/06 12:48:39;;;;;;;9.02;4.10;;;13.90;99.90;;;;;;5031418;28;20465;-88
2021/10/06 12:51:08;;;;;;;11.38;5.20;;;13.90;99.90;;;;;;5042562;28;20280;-87
2021/10/06 12:53:35;;;;;;;8.77;3.97;;;14.00;99.90;;;;;;5032618;28;20064;-86
2021/10/06 12:56:00;;;;;;;8.93;3.55;;;14.00;99.90;;;;;;5030224;28;20041;-87
2021/10/06 12:58:26;;;;;;;11.02;5.03;;;14.00;99.90;;;;;;5029297;28;20118;-87
2021/10/06 13:00:52;;;;;;;12.43;4.53;;;14.00;99.90;;;;;;5008534;28;20029;-87
2021/10/06 13:03:18;;;;;;;12.43;5.20;;;14.00;99.90;;;;;;5033283;28;20052;-86